createdAt,value
2022-09-28T00:00:59.816Z,12.83
2022-09-28T00:03:48.523Z,12.57
2022-09-28T00:06:35.453Z,12.90
2022-09-28T00:09:22.413Z,12.63
2022-09-28T00:12:09.329Z,12.70
2022-09-28T00:14:56.521Z,13.73
2022-09-28T00:17:44.980Z,13.40
2022-09-28T00:20:31.954Z,12.87
2022-09-28T00:23:18.976Z,13.27
2022-09-28T00:26:06.329Z,13.43
2022-09-28T00:28:59.250Z,12.47
2022-09-28T00:31:46.842Z,12.50
2022-09-28T00:34:37.572Z,13.33
2022-09-28T00:37:24.529Z,12.13
2022-09-28T00:40:11.622Z,12.90
2022-09-28T00:42:58.612Z,13.53
2022-09-28T00:45:48.362Z,12.97
2022-09-28T00:48:39.662Z,12.67
2022-09-28T00:51:27.205Z,13.93
2022-09-28T00:54:16.244Z,13.17
2022-09-28T00:57:04.522Z,12.90
2022-09-28T00:59:52.382Z,14.10
2022-09-28T01:02:40.016Z,13.97
2022-09-28T01:05:28.039Z,13.80
2022-09-28T01:08:17.727Z,13.90
2022-09-28T01:11:04.823Z,14.27
2022-09-28T01:13:55.253Z,12.47
2022-09-28T01:17:12.245Z,12.90
2022-09-28T01:20:20.425Z,11.93
2022-09-28T01:23:39.553Z,11.03
2022-09-28T01:26:36.364Z,8.37
2022-09-28T01:29:31.875Z,7.53
2022-09-28T01:32:40.737Z,6.80
2022-09-28T01:35:43.289Z,6.00
2022-09-28T01:38:39.452Z,4.43
2022-09-28T01:41:29.450Z,3.43
2022-09-28T01:44:19.969Z,2.47
2022-09-28T01:47:13.876Z,2.50
2022-09-28T01:50:08.518Z,2.37
2022-09-28T01:53:04.946Z,2.10
2022-09-28T01:55:57.545Z,2.30
2022-09-28T01:58:55.350Z,2.27
2022-09-28T02:02:00.208Z,2.20
2022-09-28T02:05:08.337Z,2.40
2022-09-28T02:07:59.649Z,1.90
2022-09-28T02:10:53.003Z,2.20
2022-09-28T02:13:47.102Z,2.33
2022-09-28T02:16:37.056Z,2.27
2022-09-28T02:19:27.511Z,2.27
2022-09-28T02:22:23.542Z,2.50
2022-09-28T02:25:19.329Z,2.60
2022-09-28T02:28:10.314Z,2.87
2022-09-28T02:30:57.282Z,3.20
2022-09-28T02:33:46.311Z,2.53
2022-09-28T02:36:34.007Z,2.87
2022-09-28T02:39:21.058Z,2.80
2022-09-28T02:42:17.296Z,2.80
2022-09-28T02:45:13.218Z,2.80
2022-09-28T02:48:42.725Z,2.30
2022-09-28T02:51:30.333Z,2.87
2022-09-28T02:54:54.901Z,2.37
2022-09-28T02:58:03.598Z,2.97
2022-09-28T03:01:06.699Z,2.40
2022-09-28T03:04:01.293Z,2.40
2022-09-28T03:07:10.731Z,2.50
2022-09-28T03:10:07.675Z,2.50
2022-09-28T03:12:55.805Z,2.20
2022-09-28T03:15:48.642Z,2.20
2022-09-28T03:18:36.403Z,2.47
2022-09-28T03:21:23.442Z,2.40
2022-09-28T03:24:11.261Z,2.50
2022-09-28T03:26:58.198Z,2.87
2022-09-28T03:29:45.145Z,2.93
2022-09-28T03:32:32.066Z,2.63
2022-09-28T03:35:18.994Z,3.10
2022-09-28T03:38:05.970Z,3.40
2022-09-28T03:40:57.520Z,3.07
2022-09-28T03:43:44.514Z,2.87
2022-09-28T03:46:31.612Z,3.33
2022-09-28T03:49:18.568Z,3.47
2022-09-28T03:52:06.397Z,3.63
2022-09-28T03:54:53.809Z,3.27
2022-09-28T03:57:41.787Z,3.80
2022-09-28T04:00:28.699Z,3.43
2022-09-28T04:03:15.962Z,4.40
2022-09-28T04:06:02.964Z,4.20
2022-09-28T04:08:49.949Z,3.33
2022-09-28T04:11:59.476Z,3.30
2022-09-28T04:14:43.857Z,3.50
2022-09-28T04:17:36.510Z,3.03
2022-09-28T04:20:26.582Z,3.47
2022-09-28T04:23:17.075Z,3.30
2022-09-28T04:26:05.965Z,3.40
2022-09-28T04:29:11.490Z,3.33
2022-09-28T04:32:00.198Z,3.03
2022-09-28T04:34:47.241Z,2.97
2022-09-28T04:37:34.354Z,2.77
2022-09-28T04:40:21.310Z,2.90
2022-09-28T04:43:08.505Z,2.70
2022-09-28T04:46:00.562Z,3.00
2022-09-28T04:48:47.551Z,3.20
2022-09-28T04:51:34.455Z,2.90
2022-09-28T04:54:21.402Z,3.20
2022-09-28T04:57:08.541Z,3.30
2022-09-28T04:59:55.555Z,3.40
2022-09-28T05:02:42.528Z,3.40
2022-09-28T05:05:29.551Z,3.67
2022-09-28T05:08:17.088Z,3.70
2022-09-28T05:11:07.239Z,3.43
2022-09-28T05:13:54.235Z,3.80
2022-09-28T05:16:41.232Z,3.80
2022-09-28T05:19:28.360Z,3.57
2022-09-28T05:22:15.897Z,3.57
2022-09-28T05:25:03.178Z,3.37
2022-09-28T05:27:56.312Z,4.13
2022-09-28T05:30:43.266Z,3.50
2022-09-28T05:33:31.729Z,3.43
2022-09-28T05:36:18.910Z,3.50
2022-09-28T05:39:06.873Z,3.50
2022-09-28T05:41:55.865Z,3.37
2022-09-28T05:44:42.894Z,3.50
2022-09-28T05:47:30.310Z,3.90
2022-09-28T05:50:17.319Z,3.60
2022-09-28T05:53:08.314Z,4.20
2022-09-28T05:55:58.929Z,3.67
2022-09-28T05:58:45.853Z,4.17
2022-09-28T06:01:32.824Z,3.67
2022-09-28T06:04:19.889Z,3.97
2022-09-28T06:07:07.110Z,4.40
2022-09-28T06:09:54.044Z,4.47
2022-09-28T06:12:41.460Z,5.00
2022-09-28T06:15:31.132Z,4.63
2022-09-28T06:18:18.146Z,4.70
2022-09-28T06:21:08.290Z,4.50
2022-09-28T06:23:55.761Z,4.07
2022-09-28T06:26:42.762Z,4.37
2022-09-28T06:29:30.067Z,5.20
2022-09-28T06:32:16.971Z,6.13
2022-09-28T06:35:05.155Z,6.20
2022-09-28T06:37:53.403Z,7.40
2022-09-28T06:40:40.486Z,7.67
2022-09-28T06:43:32.158Z,8.07
2022-09-28T06:46:21.273Z,7.83
2022-09-28T06:49:09.630Z,8.17
2022-09-28T06:51:56.613Z,7.70
2022-09-28T06:54:43.975Z,7.47
2022-09-28T06:57:31.158Z,7.80
2022-09-28T07:00:18.226Z,7.77
2022-09-28T07:03:11.818Z,7.87
2022-09-28T07:05:59.008Z,7.63
2022-09-28T07:08:54.324Z,7.40
2022-09-28T07:11:53.645Z,7.33
2022-09-28T07:14:47.765Z,8.03
2022-09-28T07:17:50.349Z,7.37
2022-09-28T07:20:53.040Z,6.90
2022-09-28T07:23:51.738Z,5.40
2022-09-28T07:26:41.243Z,6.80
2022-09-28T07:29:28.425Z,5.53
2022-09-28T07:32:15.433Z,4.57
2022-09-28T07:35:05.094Z,3.90
2022-09-28T07:38:00.551Z,4.00
2022-09-28T07:41:06.086Z,4.00
2022-09-28T07:43:53.771Z,3.80
2022-09-28T07:46:41.177Z,3.67
2022-09-28T07:49:28.093Z,2.90
2022-09-28T07:52:15.113Z,3.33
2022-09-28T07:55:07.205Z,2.43
2022-09-28T07:57:56.224Z,2.40
2022-09-28T08:01:10.551Z,2.40
2022-09-28T08:03:58.064Z,2.47
2022-09-28T08:06:45.246Z,2.30
2022-09-28T08:09:32.452Z,2.43
2022-09-28T08:12:21.168Z,2.23
2022-09-28T08:15:10.728Z,2.40
2022-09-28T08:18:02.006Z,2.20
2022-09-28T08:21:11.520Z,2.53
2022-09-28T08:23:58.899Z,2.97
2022-09-28T08:26:46.086Z,2.40
2022-09-28T08:29:33.155Z,2.83
2022-09-28T08:32:21.114Z,2.23
2022-09-28T08:35:08.236Z,2.30
2022-09-28T08:37:55.747Z,2.50
2022-09-28T08:41:04.690Z,2.60
2022-09-28T08:44:02.623Z,2.00
2022-09-28T08:46:55.629Z,1.93
2022-09-28T08:49:47.134Z,2.00
2022-09-28T08:52:39.435Z,2.00
2022-09-28T08:55:39.000Z,1.73
2022-09-28T08:58:33.766Z,1.80
2022-09-28T09:01:23.857Z,1.60
2022-09-28T09:04:11.049Z,1.83
2022-09-28T09:07:17.919Z,1.57
2022-09-28T09:10:14.935Z,1.40
2022-09-28T09:13:38.771Z,1.10
2022-09-28T09:16:37.770Z,1.10
2022-09-28T09:20:02.740Z,1.37
2022-09-28T09:23:00.657Z,1.30
2022-09-28T09:25:54.932Z,1.47
2022-09-28T09:28:44.957Z,1.03
2022-09-28T09:32:14.007Z,1.30
2022-09-28T09:35:29.518Z,1.53
2022-09-28T09:38:20.670Z,1.53
2022-09-28T09:41:26.465Z,1.83
2022-09-28T09:44:29.073Z,1.90
2022-09-28T09:47:29.826Z,1.50
2022-09-28T09:50:49.170Z,1.77
2022-09-28T09:53:46.626Z,1.70
2022-09-28T09:56:53.510Z,1.83
2022-09-28T09:59:43.106Z,1.80
2022-09-28T10:02:33.327Z,1.80
2022-09-28T10:05:25.585Z,1.83
2022-09-28T10:08:18.248Z,1.90
2022-09-28T10:11:20.708Z,1.50
2022-09-28T10:14:27.885Z,1.70
2022-09-28T10:17:18.263Z,1.63
2022-09-28T10:20:06.689Z,1.40
2022-09-28T10:22:56.486Z,1.40
2022-09-28T10:25:46.341Z,1.70
2022-09-28T10:28:40.918Z,1.37
2022-09-28T10:31:41.991Z,1.47
2022-09-28T10:34:30.453Z,1.60
2022-09-28T10:37:18.529Z,1.60
2022-09-28T10:40:06.342Z,1.53
2022-09-28T10:43:00.717Z,1.67
2022-09-28T10:45:47.974Z,1.47
2022-09-28T10:49:02.098Z,1.43
2022-09-28T10:51:51.898Z,1.43
2022-09-28T10:54:53.042Z,1.40
2022-09-28T10:57:40.894Z,1.50
2022-09-28T11:00:37.788Z,1.40
2022-09-28T11:03:27.349Z,1.60
2022-09-28T11:06:14.654Z,1.47
2022-09-28T11:09:04.650Z,1.73
2022-09-28T11:11:51.746Z,1.50
2022-09-28T11:14:46.751Z,1.70
2022-09-28T11:17:44.189Z,2.10
2022-09-28T11:20:35.587Z,2.20
2022-09-28T11:23:30.124Z,2.20
2022-09-28T11:26:18.965Z,2.07
2022-09-28T11:29:07.555Z,2.00
2022-09-28T11:32:01.000Z,2.10
2022-09-28T11:35:00.177Z,2.03
2022-09-28T11:38:19.166Z,2.50
2022-09-28T11:41:21.300Z,2.17
2022-09-28T11:44:20.594Z,2.20
2022-09-28T11:47:32.180Z,2.30
2022-09-28T11:50:52.601Z,2.20
2022-09-28T11:53:45.494Z,1.90
2022-09-28T11:56:42.553Z,2.17
2022-09-28T11:59:34.357Z,2.17
2022-09-28T12:02:24.842Z,2.40
2022-09-28T12:05:32.542Z,1.90
2022-09-28T12:08:30.632Z,2.00
2022-09-28T12:11:33.334Z,2.27
2022-09-28T12:14:26.402Z,2.10
2022-09-28T12:17:38.828Z,1.93
2022-09-28T12:20:34.657Z,2.20
2022-09-28T12:23:31.155Z,2.10
2022-09-28T12:26:38.842Z,2.00
2022-09-28T12:29:47.719Z,2.20
2022-09-28T12:32:53.327Z,1.80
2022-09-28T12:36:14.519Z,2.10
2022-09-28T12:39:27.468Z,2.23
2022-09-28T12:42:20.945Z,2.13
2022-09-28T12:45:47.889Z,2.10
2022-09-28T12:50:01.820Z,2.23
2022-09-28T12:52:32.628Z,2.73
2022-09-28T12:55:22.669Z,2.20
2022-09-28T12:58:21.898Z,1.73
2022-09-28T13:01:35.799Z,2.00
2022-09-28T13:04:31.858Z,1.97
2022-09-28T13:07:37.989Z,2.20
2022-09-28T13:10:42.283Z,2.50
2022-09-28T13:13:55.849Z,2.17
2022-09-28T13:17:00.510Z,2.20
2022-09-28T13:20:17.570Z,2.57
2022-09-28T13:23:12.873Z,2.20
2022-09-28T13:26:30.024Z,2.20
2022-09-28T13:29:20.254Z,2.27
2022-09-28T13:32:09.621Z,2.03
2022-09-28T13:34:57.686Z,2.50
2022-09-28T13:37:44.671Z,2.40
2022-09-28T13:41:06.472Z,2.27
2022-09-28T13:44:08.730Z,2.33
2022-09-28T13:47:20.870Z,2.83
2022-09-28T13:50:35.996Z,2.63
2022-09-28T13:53:44.873Z,2.53
2022-09-28T13:56:44.265Z,2.60
2022-09-28T13:59:42.346Z,2.23
2022-09-28T14:02:39.935Z,2.30
2022-09-28T14:05:37.012Z,2.10
2022-09-28T14:08:39.734Z,2.33
2022-09-28T14:11:35.894Z,2.73
2022-09-28T14:14:29.843Z,2.10
2022-09-28T14:17:39.933Z,2.40
2022-09-28T14:20:31.424Z,1.90
2022-09-28T14:24:00.473Z,2.20
2022-09-28T14:26:47.310Z,2.10
2022-09-28T14:29:37.313Z,1.90
2022-09-28T14:32:33.163Z,2.10
2022-09-28T14:35:39.550Z,2.53
2022-09-28T14:38:51.129Z,2.97
2022-09-28T14:41:41.953Z,3.13
2022-09-28T14:44:28.937Z,2.80
2022-09-28T14:47:34.373Z,3.10
2022-09-28T14:50:29.520Z,3.03
2022-09-28T14:53:23.946Z,3.00
2022-09-28T14:56:14.530Z,2.97
2022-09-28T14:59:02.341Z,3.20
2022-09-28T15:02:06.334Z,2.93
2022-09-28T15:05:07.390Z,3.30
2022-09-28T15:07:55.203Z,3.17
2022-09-28T15:10:50.427Z,3.23
2022-09-28T15:13:40.382Z,4.00
2022-09-28T15:16:30.637Z,3.90
2022-09-28T15:19:28.279Z,3.80
2022-09-28T15:22:20.035Z,3.73
2022-09-28T15:25:14.773Z,3.90
2022-09-28T15:28:17.298Z,3.77
2022-09-28T15:31:19.849Z,4.17
2022-09-28T15:34:44.489Z,4.87
2022-09-28T15:37:40.303Z,4.43
2022-09-28T15:40:34.867Z,4.43
2022-09-28T15:43:33.072Z,4.10
2022-09-28T15:46:25.103Z,4.23
2022-09-28T15:49:44.076Z,4.80
2022-09-28T15:52:38.896Z,5.10
2022-09-28T15:55:30.675Z,4.57
2022-09-28T15:58:23.041Z,4.67
2022-09-28T16:01:36.095Z,4.63
2022-09-28T16:04:38.518Z,5.40
2022-09-28T16:07:56.368Z,5.07
2022-09-28T16:10:54.189Z,5.17
2022-09-28T16:14:06.030Z,5.80
2022-09-28T16:16:53.357Z,5.43
2022-09-28T16:19:40.569Z,6.47
2022-09-28T16:22:28.927Z,6.40
2022-09-28T16:25:19.755Z,5.90
2022-09-28T16:28:07.055Z,5.67
2022-09-28T16:31:14.233Z,5.97
2022-09-28T16:34:10.843Z,5.97
2022-09-28T16:36:58.582Z,5.37
2022-09-28T16:39:45.538Z,5.67
2022-09-28T16:42:32.766Z,6.67
2022-09-28T16:45:23.431Z,5.43
2022-09-28T16:48:16.742Z,5.93
2022-09-28T16:51:03.801Z,5.10
2022-09-28T16:54:09.343Z,6.33
2022-09-28T16:56:56.305Z,6.13
2022-09-28T16:59:43.274Z,5.97
2022-09-28T17:02:46.434Z,7.27
2022-09-28T17:05:33.992Z,6.20
2022-09-28T17:08:23.170Z,6.57
2022-09-28T17:11:24.229Z,6.60
2022-09-28T17:14:11.945Z,6.10
2022-09-28T17:17:09.638Z,6.90
2022-09-28T17:19:57.499Z,6.50
2022-09-28T17:22:44.482Z,6.73
2022-09-28T17:25:32.278Z,7.20
2022-09-28T17:28:19.271Z,6.37
2022-09-28T17:31:10.224Z,6.77
2022-09-28T17:33:57.571Z,7.10
2022-09-28T17:36:45.284Z,6.90
2022-09-28T17:39:32.301Z,8.10
2022-09-28T17:42:19.760Z,8.40
2022-09-28T17:45:06.950Z,7.77
2022-09-28T17:47:54.644Z,8.73
2022-09-28T17:50:46.272Z,8.40
2022-09-28T17:53:33.554Z,8.00
2022-09-28T17:56:20.470Z,9.33
2022-09-28T17:59:12.617Z,9.13
2022-09-28T18:02:02.296Z,9.07
2022-09-28T18:04:52.087Z,10.30
2022-09-28T18:07:40.722Z,9.83
2022-09-28T18:10:30.953Z,10.60
2022-09-28T18:13:17.975Z,9.97
2022-09-28T18:16:05.821Z,10.50
2022-09-28T18:18:52.850Z,9.77
2022-09-28T18:21:39.847Z,10.00
2022-09-28T18:24:27.017Z,9.43
2022-09-28T18:27:13.987Z,10.30
2022-09-28T18:30:01.749Z,10.00
2022-09-28T18:32:48.680Z,9.83
2022-09-28T18:35:37.073Z,40.87
2022-09-28T18:38:24.134Z,19.90
2022-09-28T18:41:16.104Z,12.70
2022-09-28T18:44:03.254Z,12.43
2022-09-28T18:46:51.701Z,12.10
2022-09-28T18:49:38.684Z,10.60
2022-09-28T18:52:27.046Z,10.73
2022-09-28T18:55:14.171Z,10.83
2022-09-28T18:58:01.110Z,11.20
2022-09-28T19:00:48.123Z,10.50
2022-09-28T19:03:35.814Z,10.87
2022-09-28T19:06:22.719Z,9.87
2022-09-28T19:09:10.537Z,10.50
2022-09-28T19:11:57.493Z,10.20
2022-09-28T19:14:44.610Z,12.10
2022-09-28T19:17:33.374Z,11.27
2022-09-28T19:20:20.926Z,10.90
2022-09-28T19:23:07.900Z,9.10
2022-09-28T19:25:55.017Z,9.63
2022-09-28T19:28:42.438Z,9.60
2022-09-28T19:31:31.758Z,9.27
2022-09-28T19:34:19.820Z,9.17
2022-09-28T19:37:08.750Z,7.77
2022-09-28T19:39:56.119Z,9.10
2022-09-28T19:42:46.102Z,8.27
2022-09-28T19:45:36.378Z,9.07
2022-09-28T19:48:29.097Z,9.20
2022-09-28T19:51:16.704Z,8.53
2022-09-28T19:54:14.639Z,7.90
2022-09-28T19:57:08.231Z,8.53
2022-09-28T20:00:01.678Z,8.63
2022-09-28T20:02:50.246Z,8.50
2022-09-28T20:05:41.475Z,9.13
2022-09-28T20:08:32.373Z,8.40
2022-09-28T20:11:20.117Z,8.97
2022-09-28T20:14:09.832Z,8.77
2022-09-28T20:16:57.011Z,9.20
2022-09-28T20:19:43.958Z,9.53
2022-09-28T20:22:31.031Z,9.50
2022-09-28T20:25:18.193Z,10.53
2022-09-28T20:28:05.554Z,10.53
2022-09-28T20:30:52.773Z,9.70
2022-09-28T20:33:42.699Z,9.97
2022-09-28T20:36:33.035Z,10.13
2022-09-28T20:39:20.174Z,9.90
2022-09-28T20:42:07.474Z,10.23
2022-09-28T20:44:54.780Z,9.90
2022-09-28T20:47:41.743Z,9.07
2022-09-28T20:50:28.737Z,10.40
2022-09-28T20:53:15.894Z,11.10
2022-09-28T20:56:11.623Z,10.37
2022-09-28T20:58:58.566Z,10.60
2022-09-28T21:01:45.665Z,9.87
2022-09-28T21:04:32.695Z,10.10
2022-09-28T21:07:19.914Z,11.47
2022-09-28T21:10:07.659Z,10.20
2022-09-28T21:12:54.600Z,9.40
2022-09-28T21:15:41.590Z,9.53
2022-09-28T21:18:29.058Z,10.40
2022-09-28T21:21:18.298Z,10.10
2022-09-28T21:24:05.438Z,10.40
2022-09-28T21:26:52.401Z,9.97
2022-09-28T21:29:39.355Z,10.97
2022-09-28T21:32:27.854Z,9.73
2022-09-28T21:35:14.876Z,10.60
2022-09-28T21:38:01.798Z,10.83
2022-09-28T21:40:54.854Z,9.70
2022-09-28T21:43:41.878Z,9.97
2022-09-28T21:46:34.214Z,10.07
2022-09-28T21:49:21.220Z,10.87
2022-09-28T21:52:08.154Z,10.93
2022-09-28T21:54:55.138Z,10.50
2022-09-28T21:57:42.801Z,10.50
2022-09-28T22:00:29.735Z,9.97
2022-09-28T22:03:17.249Z,10.00
2022-09-28T22:06:05.119Z,9.97
2022-09-28T22:08:52.271Z,10.50
2022-09-28T22:11:39.197Z,10.00
2022-09-28T22:14:26.945Z,10.47
2022-09-28T22:17:13.895Z,9.83
2022-09-28T22:20:01.071Z,10.33
2022-09-28T22:22:51.895Z,10.10
2022-09-28T22:25:38.811Z,10.30
2022-09-28T22:28:26.334Z,10.87
2022-09-28T22:31:14.257Z,9.60
2022-09-28T22:34:01.422Z,10.33
2022-09-28T22:36:48.343Z,10.23
2022-09-28T22:39:37.702Z,10.00
2022-09-28T22:42:25.030Z,10.80
2022-09-28T22:45:11.967Z,10.73
2022-09-28T22:47:58.946Z,10.83
2022-09-28T22:50:50.479Z,9.87
2022-09-28T22:53:37.925Z,11.47
2022-09-28T22:56:25.238Z,12.10
2022-09-28T22:59:12.197Z,11.37
2022-09-28T23:01:59.175Z,11.03
2022-09-28T23:04:46.177Z,9.97
2022-09-28T23:07:33.304Z,11.07
2022-09-28T23:10:20.264Z,10.90
2022-09-28T23:13:08.194Z,10.47
2022-09-28T23:16:03.603Z,10.87
2022-09-28T23:18:50.622Z,11.00
2022-09-28T23:21:38.042Z,11.83
2022-09-28T23:24:25.057Z,10.80
2022-09-28T23:27:12.021Z,10.87
2022-09-28T23:29:58.926Z,12.07
2022-09-28T23:32:45.922Z,13.03
2022-09-28T23:35:35.913Z,11.83
2022-09-28T23:38:22.843Z,13.17
2022-09-28T23:41:10.042Z,14.80
2022-09-28T23:43:57.075Z,15.17
2022-09-28T23:46:44.151Z,16.73
2022-09-28T23:49:31.581Z,17.03
2022-09-28T23:52:18.604Z,18.00
2022-09-28T23:55:06.030Z,18.97
2022-09-28T23:57:55.733Z,18.10
